createdAt,value
2023-01-02T00:01:00.294Z,1.13
2023-01-02T00:03:27.054Z,0.68
2023-01-02T00:05:54.511Z,1.02
2023-01-02T00:08:21.140Z,1.10
2023-01-02T00:10:47.765Z,1.00
2023-01-02T00:13:14.675Z,0.70
2023-01-02T00:15:41.548Z,1.10
2023-01-02T00:18:08.155Z,1.02
2023-01-02T00:20:34.826Z,1.10
2023-01-02T00:23:01.504Z,1.00
2023-01-02T00:25:28.122Z,0.70
2023-01-02T00:27:57.475Z,1.27
2023-01-02T00:30:24.109Z,1.00
2023-01-02T00:32:50.727Z,1.02
2023-01-02T00:35:17.416Z,1.10
2023-01-02T00:37:43.974Z,0.95
2023-01-02T00:40:14.092Z,1.02
2023-01-02T00:42:41.705Z,1.15
2023-01-02T00:45:10.181Z,1.02
2023-01-02T00:47:36.952Z,1.15
2023-01-02T00:50:04.444Z,1.30
2023-01-02T00:52:31.078Z,0.93
2023-01-02T00:54:57.663Z,0.90
2023-01-02T00:57:24.307Z,0.80
2023-01-02T00:59:50.861Z,1.40
2023-01-02T01:02:17.591Z,0.95
2023-01-02T01:04:44.207Z,1.30
2023-01-02T01:07:10.887Z,1.00
2023-01-02T01:09:37.443Z,0.90
2023-01-02T01:12:05.172Z,1.15
2023-01-02T01:14:32.027Z,1.10
2023-01-02T01:16:59.896Z,1.00
2023-01-02T01:19:34.841Z,0.90
2023-01-02T01:22:01.516Z,1.10
2023-01-02T01:24:28.510Z,1.10
2023-01-02T01:26:55.168Z,1.30
2023-01-02T01:29:21.907Z,1.00
2023-01-02T01:31:48.577Z,1.25
2023-01-02T01:34:15.326Z,1.10
2023-01-02T01:36:41.952Z,1.17
2023-01-02T01:39:08.610Z,1.00
2023-01-02T01:41:35.262Z,0.70
2023-01-02T01:44:03.122Z,1.35
2023-01-02T01:46:43.513Z,0.90
2023-01-02T01:49:14.621Z,1.10
2023-01-02T01:51:48.139Z,1.00
2023-01-02T01:54:19.332Z,1.00
2023-01-02T01:56:52.341Z,0.98
2023-01-02T01:59:19.538Z,1.10
2023-01-02T02:01:49.129Z,1.05
2023-01-02T02:04:20.092Z,0.90
2023-01-02T02:06:48.496Z,0.90
2023-01-02T02:09:37.100Z,1.20
2023-01-02T02:12:06.736Z,1.00
2023-01-02T02:14:34.462Z,1.10
2023-01-02T02:17:15.134Z,1.10
2023-01-02T02:20:18.328Z,1.02
2023-01-02T02:23:03.826Z,0.98
2023-01-02T02:25:55.993Z,1.00
2023-01-02T02:28:48.542Z,1.08
2023-01-02T02:31:33.584Z,0.95
2023-01-02T02:34:22.939Z,1.40
2023-01-02T02:37:01.817Z,0.90
2023-01-02T02:39:52.220Z,0.80
2023-01-02T02:42:36.197Z,1.00
2023-01-02T02:45:16.335Z,0.90
2023-01-02T02:47:51.960Z,1.00
2023-01-02T02:50:57.537Z,1.20
2023-01-02T02:53:30.041Z,2.10
2023-01-02T02:56:00.351Z,2.17
2023-01-02T02:58:29.648Z,1.73
2023-01-02T03:01:15.695Z,1.90
2023-01-02T03:03:42.784Z,1.50
2023-01-02T03:06:18.121Z,1.33
2023-01-02T03:08:55.925Z,1.60
2023-01-02T03:11:45.693Z,1.70
2023-01-02T03:14:21.902Z,1.70
2023-01-02T03:17:01.927Z,1.63
2023-01-02T03:19:41.803Z,1.73
2023-01-02T03:22:31.875Z,1.33
2023-01-02T03:24:59.101Z,1.50
2023-01-02T03:27:29.411Z,1.45
2023-01-02T03:30:12.701Z,1.60
2023-01-02T03:32:45.627Z,1.50
2023-01-02T03:35:17.632Z,1.60
2023-01-02T03:37:52.605Z,1.60
2023-01-02T03:40:25.697Z,1.50
2023-01-02T03:43:02.056Z,1.55
2023-01-02T03:45:33.360Z,1.23
2023-01-02T03:48:16.118Z,1.63
2023-01-02T03:50:49.987Z,1.40
2023-01-02T03:53:16.825Z,1.67
2023-01-02T03:55:57.565Z,1.48
2023-01-02T03:58:24.091Z,1.67
2023-01-02T04:01:05.736Z,1.70
2023-01-02T04:04:03.988Z,1.30
2023-01-02T04:06:38.735Z,1.17
2023-01-02T04:09:13.204Z,1.50
2023-01-02T04:11:44.465Z,1.40
2023-01-02T04:14:26.679Z,1.40
2023-01-02T04:16:55.229Z,1.50
2023-01-02T04:19:34.986Z,1.67
2023-01-02T04:22:07.483Z,1.92
2023-01-02T04:24:40.705Z,1.58
2023-01-02T04:27:33.768Z,1.65
2023-01-02T04:30:00.660Z,1.75
2023-01-02T04:32:45.193Z,1.67
2023-01-02T04:35:17.340Z,1.70
2023-01-02T04:37:45.252Z,1.40
2023-01-02T04:40:23.667Z,1.67
2023-01-02T04:42:50.505Z,1.77
2023-01-02T04:45:17.557Z,1.60
2023-01-02T04:47:44.637Z,1.73
2023-01-02T04:50:11.346Z,2.05
2023-01-02T04:52:37.906Z,1.73
2023-01-02T04:55:09.573Z,2.00
2023-01-02T04:57:37.516Z,1.70
2023-01-02T05:00:06.325Z,1.60
2023-01-02T05:02:37.109Z,1.88
2023-01-02T05:05:05.089Z,1.67
2023-01-02T05:07:33.619Z,1.90
2023-01-02T05:10:00.328Z,1.92
2023-01-02T05:12:26.961Z,2.10
2023-01-02T05:14:53.640Z,1.88
2023-01-02T05:17:20.226Z,2.10
2023-01-02T05:19:46.867Z,2.33
2023-01-02T05:22:32.195Z,2.30
2023-01-02T05:24:58.803Z,2.17
2023-01-02T05:27:25.466Z,1.85
2023-01-02T05:29:52.089Z,2.33
2023-01-02T05:32:18.628Z,1.92
2023-01-02T05:34:45.236Z,1.80
2023-01-02T05:37:11.812Z,2.10
2023-01-02T05:39:38.444Z,1.92
2023-01-02T05:42:05.172Z,2.75
2023-01-02T05:44:31.774Z,1.90
2023-01-02T05:46:58.380Z,2.15
2023-01-02T05:49:25.177Z,1.70
2023-01-02T05:51:51.746Z,2.20
2023-01-02T05:54:18.326Z,2.00
2023-01-02T05:56:44.863Z,2.20
2023-01-02T05:59:14.219Z,1.58
2023-01-02T06:01:41.385Z,1.52
2023-01-02T06:04:14.674Z,1.73
2023-01-02T06:06:44.503Z,3.95
2023-01-02T06:09:15.787Z,3.35
2023-01-02T06:11:43.010Z,3.28
2023-01-02T06:14:10.703Z,3.45
2023-01-02T06:16:38.595Z,2.10
2023-01-02T06:19:06.137Z,4.82
2023-01-02T06:21:32.856Z,2.17
2023-01-02T06:24:00.237Z,3.13
2023-01-02T06:26:34.287Z,2.75
2023-01-02T06:29:02.854Z,2.05
2023-01-02T06:31:29.846Z,2.10
2023-01-02T06:33:58.433Z,4.13
2023-01-02T06:36:26.380Z,2.97
2023-01-02T06:38:53.039Z,6.75
2023-01-02T06:41:19.834Z,3.33
2023-01-02T06:43:48.416Z,1.88
2023-01-02T06:46:18.234Z,2.33
2023-01-02T06:48:45.559Z,5.20
2023-01-02T06:51:15.821Z,6.28
2023-01-02T06:53:43.917Z,5.57
2023-01-02T06:56:12.487Z,5.13
2023-01-02T06:58:39.920Z,2.83
2023-01-02T07:01:09.651Z,2.38
2023-01-02T07:03:36.753Z,2.15
2023-01-02T07:06:10.909Z,2.10
2023-01-02T07:08:37.606Z,2.35
2023-01-02T07:11:13.747Z,2.90
2023-01-02T07:13:41.968Z,2.35
2023-01-02T07:16:11.785Z,2.58
2023-01-02T07:18:38.737Z,2.97
2023-01-02T07:21:06.739Z,3.28
2023-01-02T07:23:33.970Z,3.00
2023-01-02T07:26:02.940Z,2.72
2023-01-02T07:28:30.651Z,3.30
2023-01-02T07:30:59.269Z,3.17
2023-01-02T07:33:28.105Z,2.58
2023-01-02T07:36:02.031Z,2.60
2023-01-02T07:38:29.181Z,2.80
2023-01-02T07:40:55.734Z,3.45
2023-01-02T07:43:23.090Z,2.50
2023-01-02T07:45:50.916Z,2.90
2023-01-02T07:48:18.464Z,3.92
2023-01-02T07:50:45.674Z,3.40
2023-01-02T07:53:12.681Z,3.03
2023-01-02T07:55:39.250Z,3.67
2023-01-02T07:58:07.022Z,3.50
2023-01-02T08:00:33.630Z,3.90
2023-01-02T08:03:01.342Z,3.17
2023-01-02T08:05:28.146Z,3.10
2023-01-02T08:07:54.740Z,2.80
2023-01-02T08:10:21.401Z,3.00
2023-01-02T08:12:47.971Z,3.55
2023-01-02T08:15:14.616Z,3.45
2023-01-02T08:17:41.593Z,2.80
2023-01-02T08:20:09.947Z,3.10
2023-01-02T08:22:37.507Z,3.38
2023-01-02T08:25:04.875Z,4.65
2023-01-02T08:27:31.596Z,3.72
2023-01-02T08:29:58.334Z,3.20
2023-01-02T08:32:25.272Z,2.72
2023-01-02T08:34:51.879Z,2.35
2023-01-02T08:37:18.625Z,2.80
2023-01-02T08:39:45.295Z,2.80
2023-01-02T08:42:12.055Z,2.55
2023-01-02T08:44:39.218Z,2.65
2023-01-02T08:47:06.107Z,3.05
2023-01-02T08:49:32.714Z,2.90
2023-01-02T08:51:59.372Z,3.90
2023-01-02T08:54:26.281Z,3.78
2023-01-02T08:56:52.943Z,3.22
2023-01-02T08:59:19.615Z,3.60
2023-01-02T09:01:46.455Z,3.92
2023-01-02T09:04:13.855Z,6.25
2023-01-02T09:06:42.110Z,5.85
2023-01-02T09:09:13.047Z,5.22
2023-01-02T09:11:46.109Z,4.88
2023-01-02T09:14:12.921Z,5.07
2023-01-02T09:16:39.506Z,4.05
2023-01-02T09:19:06.445Z,3.60
2023-01-02T09:21:33.071Z,3.50
2023-01-02T09:23:59.733Z,3.88
2023-01-02T09:26:26.401Z,6.35
2023-01-02T09:28:53.126Z,7.90
2023-01-02T09:31:22.065Z,9.00
2023-01-02T09:33:48.857Z,9.55
2023-01-02T09:36:18.214Z,13.25
2023-01-02T09:38:49.926Z,9.88
2023-01-02T09:41:55.696Z,10.50
2023-01-02T09:44:41.514Z,10.02
2023-01-02T09:47:12.265Z,10.38
2023-01-02T09:50:01.197Z,12.02
2023-01-02T09:52:38.241Z,9.77
2023-01-02T09:55:15.375Z,8.82
2023-01-02T09:57:54.653Z,7.68
2023-01-02T10:00:24.724Z,7.93
2023-01-02T10:03:26.861Z,8.23
2023-01-02T10:06:04.830Z,7.97
2023-01-02T10:08:49.193Z,7.60
2023-01-02T10:12:03.471Z,7.68
2023-01-02T10:14:53.468Z,5.80
2023-01-02T10:17:21.395Z,5.57
2023-01-02T10:20:08.897Z,6.47
2023-01-02T10:22:43.221Z,5.07
2023-01-02T10:25:19.531Z,5.63
2023-01-02T10:27:52.119Z,5.07
2023-01-02T10:30:20.784Z,5.00
2023-01-02T10:33:24.389Z,5.00
2023-01-02T10:35:56.665Z,5.50
2023-01-02T10:38:25.657Z,5.88
2023-01-02T10:40:52.463Z,5.50
2023-01-02T10:43:19.613Z,6.75
2023-01-02T10:45:46.447Z,5.95
2023-01-02T10:48:13.682Z,6.20
2023-01-02T10:50:44.283Z,20.33
2023-01-02T10:53:33.510Z,7.05
2023-01-02T10:56:06.050Z,6.00
2023-01-02T10:58:35.089Z,5.43
2023-01-02T11:01:07.319Z,4.95
2023-01-02T11:03:34.567Z,5.65
2023-01-02T11:06:26.858Z,5.53
2023-01-02T11:08:57.375Z,5.38
2023-01-02T11:11:25.975Z,4.70
2023-01-02T11:13:57.602Z,5.05
2023-01-02T11:16:26.364Z,5.97
2023-01-02T11:18:55.040Z,6.53
2023-01-02T11:21:40.686Z,6.00
2023-01-02T11:24:15.694Z,5.68
2023-01-02T11:26:44.510Z,5.22
2023-01-02T11:29:36.179Z,5.30
2023-01-02T11:32:04.192Z,5.82
2023-01-02T11:34:37.275Z,5.55
2023-01-02T11:37:12.049Z,6.70
2023-01-02T11:39:39.755Z,6.30
2023-01-02T11:42:28.141Z,6.90
2023-01-02T11:45:09.167Z,6.53
2023-01-02T11:47:48.112Z,7.57
2023-01-02T11:50:36.439Z,6.95
2023-01-02T11:53:18.125Z,9.43
2023-01-02T11:55:56.746Z,9.55
2023-01-02T11:58:31.235Z,8.57
2023-01-02T12:01:16.174Z,8.30
2023-01-02T12:03:43.117Z,8.05
2023-01-02T12:06:18.684Z,9.32
2023-01-02T12:09:11.619Z,8.45
2023-01-02T12:11:50.405Z,9.25
2023-01-02T12:14:22.251Z,11.48
2023-01-02T12:17:14.593Z,10.52
2023-01-02T12:19:50.215Z,11.32
2023-01-02T12:22:31.011Z,11.57
2023-01-02T12:25:07.406Z,11.25
2023-01-02T12:27:50.683Z,11.15
2023-01-02T12:30:19.643Z,10.07
2023-01-02T12:33:00.650Z,12.02
2023-01-02T12:35:42.673Z,10.00
2023-01-02T12:38:12.340Z,10.50
2023-01-02T12:41:19.086Z,11.88
2023-01-02T12:43:59.584Z,13.27
2023-01-02T12:47:03.690Z,15.30
2023-01-02T12:49:51.855Z,11.13
2023-01-02T12:52:24.321Z,10.65
2023-01-02T12:54:50.935Z,10.85
2023-01-02T12:57:34.982Z,9.80
2023-01-02T13:00:15.503Z,9.00
2023-01-02T13:03:01.095Z,10.13
2023-01-02T13:05:33.731Z,10.00
2023-01-02T13:08:07.208Z,9.88
2023-01-02T13:10:34.020Z,10.40
2023-01-02T13:13:01.504Z,10.00
2023-01-02T13:15:34.470Z,10.15
2023-01-02T13:18:07.905Z,10.10
2023-01-02T13:21:05.662Z,9.80
2023-01-02T13:23:43.896Z,9.75
2023-01-02T13:26:21.416Z,8.95
2023-01-02T13:29:09.978Z,9.23
2023-01-02T13:31:48.184Z,8.88
2023-01-02T13:34:26.526Z,9.15
2023-01-02T13:37:09.131Z,8.88
2023-01-02T13:39:42.059Z,10.93
2023-01-02T13:42:38.283Z,9.57
2023-01-02T13:45:15.301Z,9.15
2023-01-02T13:47:49.272Z,8.90
2023-01-02T13:50:22.809Z,9.45
2023-01-02T13:53:02.626Z,8.85
2023-01-02T13:55:31.560Z,25.83
2023-01-02T13:58:25.953Z,10.55
2023-01-02T14:00:57.244Z,8.32
2023-01-02T14:03:24.132Z,8.55
2023-01-02T14:06:01.769Z,9.07
2023-01-02T14:08:31.814Z,8.30
2023-01-02T14:11:13.413Z,10.20
2023-01-02T14:13:46.304Z,12.48
2023-01-02T14:16:24.885Z,10.00
2023-01-02T14:19:04.555Z,10.20
2023-01-02T14:21:38.113Z,11.13
2023-01-02T14:24:17.509Z,11.43
2023-01-02T14:26:52.495Z,11.52
2023-01-02T14:29:20.262Z,11.13
2023-01-02T14:31:47.724Z,10.85
2023-01-02T14:34:23.539Z,10.95
2023-01-02T14:36:52.590Z,11.45
2023-01-02T14:39:33.624Z,10.52
2023-01-02T14:42:31.564Z,9.80
2023-01-02T14:45:03.090Z,10.30
2023-01-02T14:47:38.293Z,9.45
2023-01-02T14:50:11.236Z,9.68
2023-01-02T14:52:41.047Z,9.38
2023-01-02T14:55:21.792Z,8.32
2023-01-02T14:57:50.856Z,8.30
2023-01-02T15:00:32.494Z,7.72
2023-01-02T15:03:25.977Z,9.13
2023-01-02T15:06:28.021Z,7.32
2023-01-02T15:09:06.924Z,6.95
2023-01-02T15:11:52.312Z,7.82
2023-01-02T15:14:23.751Z,14.52
2023-01-02T15:16:56.352Z,11.70
2023-01-02T15:19:27.118Z,11.15
2023-01-02T15:21:54.991Z,12.90
2023-01-02T15:24:30.500Z,10.55
2023-01-02T15:27:32.425Z,11.23
2023-01-02T15:30:18.339Z,10.23
2023-01-02T15:32:48.596Z,10.52
2023-01-02T15:35:27.704Z,12.07
2023-01-02T15:37:54.674Z,10.65
2023-01-02T15:40:34.217Z,11.83
2023-01-02T15:43:30.686Z,11.40
2023-01-02T15:45:58.361Z,12.32
2023-01-02T15:48:30.460Z,12.32
2023-01-02T15:50:58.960Z,12.55
2023-01-02T15:53:27.743Z,11.07
2023-01-02T15:55:55.667Z,11.90
2023-01-02T15:58:31.686Z,18.42
2023-01-02T16:01:19.113Z,60.30
2023-01-02T16:04:03.103Z,18.02
2023-01-02T16:06:39.050Z,26.10
2023-01-02T16:09:16.738Z,17.27
2023-01-02T16:11:47.306Z,18.70
2023-01-02T16:14:20.355Z,17.10
2023-01-02T16:16:51.885Z,20.80
2023-01-02T16:19:24.841Z,18.02
2023-01-02T16:22:00.571Z,16.45
2023-01-02T16:24:27.442Z,14.95
2023-01-02T16:26:54.185Z,18.02
2023-01-02T16:29:23.215Z,16.27
2023-01-02T16:31:59.204Z,15.25
2023-01-02T16:34:36.474Z,16.38
2023-01-02T16:37:31.287Z,15.00
2023-01-02T16:39:58.178Z,14.90
2023-01-02T16:42:35.298Z,10.98
2023-01-02T16:45:02.199Z,9.38
2023-01-02T16:47:43.584Z,10.75
2023-01-02T16:50:22.292Z,36.35
2023-01-02T16:52:49.579Z,14.43
2023-01-02T16:55:18.862Z,12.98
2023-01-02T16:57:46.562Z,24.30
2023-01-02T17:00:14.839Z,20.50
2023-01-02T17:02:41.545Z,18.58
2023-01-02T17:05:23.584Z,19.30
2023-01-02T17:07:50.246Z,17.52
2023-01-02T17:10:16.936Z,16.20
2023-01-02T17:12:44.557Z,19.60
2023-01-02T17:15:13.779Z,19.85
2023-01-02T17:17:40.817Z,19.80
2023-01-02T17:20:12.444Z,19.38
2023-01-02T17:22:39.573Z,16.58
2023-01-02T17:25:07.959Z,31.10
2023-01-02T17:27:35.251Z,20.02
2023-01-02T17:30:05.162Z,15.52
2023-01-02T17:32:32.317Z,18.10
2023-01-02T17:34:58.959Z,15.38
2023-01-02T17:37:25.751Z,14.30
2023-01-02T17:39:53.380Z,14.98
2023-01-02T17:42:20.718Z,12.35
2023-01-02T17:44:47.315Z,13.30
2023-01-02T17:47:48.632Z,27.38
2023-01-02T17:50:01.305Z,16.48
2023-01-02T17:52:28.287Z,12.75
2023-01-02T17:54:56.927Z,13.95
2023-01-02T17:57:24.809Z,11.05
2023-01-02T17:59:51.576Z,10.95
2023-01-02T18:02:20.358Z,11.50
2023-01-02T18:04:54.567Z,10.95
2023-01-02T18:07:25.818Z,11.05
2023-01-02T18:10:12.593Z,13.73
2023-01-02T18:12:42.886Z,13.70
2023-01-02T18:15:13.980Z,15.88
2023-01-02T18:17:40.709Z,14.82
2023-01-02T18:20:27.606Z,12.50
2023-01-02T18:22:59.175Z,12.50
2023-01-02T18:25:32.967Z,12.60
2023-01-02T18:28:26.964Z,13.18
2023-01-02T18:30:57.144Z,12.60
2023-01-02T18:33:26.201Z,11.50
2023-01-02T18:35:59.156Z,11.45
2023-01-02T18:38:38.354Z,10.57
2023-01-02T18:41:23.832Z,15.85
2023-01-02T18:43:54.962Z,15.23
2023-01-02T18:47:03.465Z,15.18
2023-01-02T18:49:26.726Z,14.68
2023-01-02T18:52:06.569Z,14.80
2023-01-02T18:54:34.279Z,16.65
2023-01-02T18:57:11.264Z,18.38
2023-01-02T18:59:37.988Z,20.40
2023-01-02T19:02:15.729Z,21.35
2023-01-02T19:04:42.533Z,21.42
2023-01-02T19:07:32.080Z,22.02
2023-01-02T19:10:37.251Z,21.42
2023-01-02T19:13:25.500Z,21.15
2023-01-02T19:16:02.998Z,23.00
2023-01-02T19:18:42.288Z,25.73
2023-01-02T19:21:08.885Z,22.73
2023-01-02T19:23:44.565Z,23.75
2023-01-02T19:26:36.449Z,23.10
2023-01-02T19:29:09.009Z,24.15
2023-01-02T19:32:02.189Z,22.77
2023-01-02T19:34:47.605Z,21.42
2023-01-02T19:37:24.062Z,21.25
2023-01-02T19:40:02.511Z,22.55
2023-01-02T19:42:34.562Z,22.33
2023-01-02T19:45:05.162Z,22.17
2023-01-02T19:47:34.389Z,24.63
2023-01-02T19:50:01.900Z,23.70
2023-01-02T19:52:29.600Z,24.90
2023-01-02T19:54:58.372Z,23.77
2023-01-02T19:57:28.581Z,22.08
2023-01-02T19:59:56.180Z,24.50
2023-01-02T20:02:38.740Z,18.67
2023-01-02T20:05:21.488Z,14.88
2023-01-02T20:07:52.172Z,18.88
2023-01-02T20:13:48.534Z,24.23
2023-01-02T20:16:32.790Z,24.50
2023-01-02T20:19:05.905Z,17.10
2023-01-02T20:21:32.686Z,21.38
2023-01-02T20:24:02.340Z,18.00
2023-01-02T20:26:30.133Z,15.98
2023-01-02T20:28:56.984Z,14.80
2023-01-02T20:31:23.652Z,15.27
2023-01-02T20:33:50.379Z,14.10
2023-01-02T20:36:17.041Z,14.93
2023-01-02T20:38:43.828Z,13.38
2023-01-02T20:41:12.928Z,15.57
2023-01-02T20:43:41.837Z,17.08
2023-01-02T20:46:08.554Z,14.32
2023-01-02T20:48:37.893Z,15.90
2023-01-02T20:51:04.748Z,14.30
2023-01-02T20:53:31.557Z,14.05
2023-01-02T20:55:58.307Z,12.85
2023-01-02T20:58:25.039Z,9.40
2023-01-02T21:00:51.718Z,9.70
2023-01-02T21:03:18.590Z,10.15
2023-01-02T21:05:45.538Z,10.48
2023-01-02T21:08:12.309Z,8.20
2023-01-02T21:10:38.912Z,9.77
2023-01-02T21:13:09.441Z,10.45
2023-01-02T21:15:45.764Z,10.32
2023-01-02T21:18:15.468Z,8.73
2023-01-02T21:20:47.304Z,8.48
2023-01-02T21:23:15.425Z,5.32
2023-01-02T21:25:47.308Z,4.70
2023-01-02T21:28:15.841Z,4.35
2023-01-02T21:30:43.747Z,3.90
2023-01-02T21:33:12.422Z,4.43
2023-01-02T21:35:40.163Z,5.70
2023-01-02T21:38:10.817Z,6.07
2023-01-02T21:40:38.765Z,7.55
2023-01-02T21:43:05.867Z,8.05
2023-01-02T21:45:32.551Z,7.90
2023-01-02T21:47:59.182Z,8.23
2023-01-02T21:50:26.723Z,8.17
2023-01-02T21:52:54.050Z,8.40
2023-01-02T21:55:21.908Z,8.00
2023-01-02T22:00:36.682Z,8.02
2023-01-02T22:03:03.647Z,8.30
2023-01-02T22:05:30.397Z,8.00
2023-01-02T22:07:58.771Z,8.75
2023-01-02T22:10:25.524Z,8.23
2023-01-02T22:12:52.216Z,7.95
2023-01-02T22:15:18.981Z,7.67
2023-01-02T22:17:45.626Z,7.55
2023-01-02T22:20:12.634Z,7.70
2023-01-02T22:22:39.265Z,7.82
2023-01-02T22:25:06.627Z,13.23
2023-01-02T22:27:33.455Z,11.73
2023-01-02T22:32:48.411Z,10.65
2023-01-02T22:35:16.980Z,10.52
2023-01-02T22:37:43.603Z,7.57
2023-01-02T22:40:11.025Z,7.55
2023-01-02T22:43:05.194Z,7.25
2023-01-02T22:45:53.125Z,6.95
2023-01-02T22:48:33.668Z,8.57
2023-01-02T22:51:02.464Z,8.52
2023-01-02T22:53:32.068Z,9.30
2023-01-02T22:56:00.654Z,8.55
2023-01-02T22:58:27.397Z,9.45
2023-01-02T23:01:02.122Z,8.50
2023-01-02T23:03:32.071Z,9.50
2023-01-02T23:05:58.829Z,8.30
2023-01-02T23:08:25.665Z,8.20
2023-01-02T23:10:52.433Z,8.85
2023-01-02T23:13:19.249Z,8.43
2023-01-02T23:16:06.254Z,8.70
2023-01-02T23:18:56.603Z,8.70
2023-01-02T23:21:28.024Z,8.27
2023-01-02T23:23:55.707Z,8.27
2023-01-02T23:26:25.621Z,6.70
2023-01-02T23:29:08.701Z,7.00
2023-01-02T23:31:48.596Z,6.50
2023-01-02T23:34:17.813Z,6.97
2023-01-02T23:36:44.965Z,8.15
2023-01-02T23:39:17.105Z,7.00
2023-01-02T23:41:45.402Z,6.20
2023-01-02T23:44:12.842Z,7.20
2023-01-02T23:46:40.924Z,6.15
2023-01-02T23:49:08.700Z,5.75
2023-01-02T23:51:36.611Z,4.68
2023-01-02T23:54:03.792Z,5.00
2023-01-02T23:56:36.287Z,4.63
2023-01-02T23:59:06.403Z,4.50
